Weather observations for the past three days for
Starke County Airport
Imperial (Metric)
Date Time (cdt) Wind (mph) Vis. (mi.) Weather Sky Cond. Temperature (ºF) Relative Humidity Wind Chill (°F) Heat Index (°F) Pressure Precipitation (in)
Air Dwpt 6 hour altimeter (in) sea level (mb) 1 hr 3 hr 6 hr
Max. Min.
04 06:35 SW 5 10.00 Fair CLR 50 46.4 88% 49 29.69 0.0
04 06:15 SW 8 10.00 Fair CLR 50 44.6 82% 47 29.69 0.0
04 05:55 SW 8 10.00 Fair CLR 50 44.6 82% 47 29.7 0.0
04 05:35 SW 12 G 18 10.00 Fair CLR 50 44.6 82% 46 29.69 0.0
04 05:15 S 12 10.00 Fair CLR 50 44.6 82% 46 29.69 0.0
04 04:55 S 12 10.00 Fair CLR 48.2 44.6 87% 44 29.69 0.0
04 04:15 S 9 10.00 Fair CLR 48.2 44.6 87% 45 29.7 0.0
04 03:55 S 9 10.00 Fair CLR 48.2 44.6 87% 45 29.7 0.0
04 03:35 S 8 10.00 Fair CLR 50 44.6 82% 47 29.69 0.0
04 03:15 S 9 10.00 Fair CLR 50 44.6 82% 47 29.7 0.0
04 02:55 S 8 10.00 Fair CLR 50 44.6 82% 47 29.7 0.0
04 02:35 S 9 10.00 Fair CLR 51.8 44.6 77% 29.71 0.0
04 02:15 S 13 10.00 Fair CLR 51.8 44.6 77% 29.71 0.0
04 01:55 S 13 G 20 10.00 Fair CLR 51.8 44.6 77% 29.72 0.0
04 01:35 S 14 G 21 10.00 Fair CLR 51.8 44.6 77% 29.72 0.0
04 01:15 S 12 10.00 Fair CLR 51.8 44.6 77% 29.73 0.0
04 00:55 S 10 10.00 Fair CLR 51.8 44.6 59.7 51.6 77% 29.74 0.0
04 00:35 S 10 10.00 Fair CLR 51.8 44.6 77% 29.75 0.0
04 00:15 S 13 10.00 Fair CLR 51.8 44.6 77% 29.75 0.0
03 23:55 S 12 10.00 Fair CLR 51.8 44.6 77% 29.75 0.0
03 23:35 S 12 10.00 Fair CLR 53.6 44.6 72% 29.76 0.0
03 23:15 S 12 10.00 A Few Clouds FEW065 53.6 44.6 72% 29.76 0.0
03 22:55 S 13 G 18 10.00 A Few Clouds FEW065 53.6 44.6 72% 29.76 0.0
03 22:35 S 13 10.00 Fair CLR 53.6 44.6 72% 29.77 0.0
03 22:15 S 14 G 21 10.00 Fair CLR 53.6 44.6 72% 29.77 0.0
03 21:55 S 14 G 21 10.00 Fair CLR 55.4 44.6 67% 29.77 0.0
03 21:35 S 14 10.00 Fair CLR 55.4 44.6 67% 29.77 0.0
03 21:15 S 13 10.00 Fair CLR 55.4 44.6 67% 29.77 0.0
03 20:55 S 13 10.00 Fair CLR 55.4 44.6 67% 29.77 0.0
03 20:35 S 13 G 20 10.00 Fair CLR 55.4 44.6 67% 29.77 0.0
03 20:15 S 13 10.00 Fair CLR 55.4 44.6 67% 29.77 0.0
03 19:55 S 10 G 18 10.00 Fair CLR 57.2 44.6 63% 29.77 0.0
03 19:35 S 16 10.00 Fair CLR 57.2 44.6 63% 29.77 0.0
03 19:15 S 15 G 22 10.00 Fair CLR 59 44.6 59% 29.77 0.0
03 18:55 S 17 G 23 10.00 A Few Clouds FEW100 59 44.6 61 48 59% 29.77 0.0
03 18:35 S 18 G 23 10.00 A Few Clouds FEW100 60.8 44.6 55% 29.78 0.0
03 18:15 S 15 G 22 10.00 Partly Cloudy SCT070 60.8 42.8 52% 29.79 0.0
03 17:55 S 16 10.00 Overcast OVC070 60.8 44.6 55% 29.79 0.0
03 17:35 S 13 10.00 Overcast OVC070 59 44.6 59% 29.8 0.0
03 17:15 S 21 G 28 10.00 Overcast and Breezy OVC070 59 42.8 55% 29.8 0.0
03 16:55 S 10 10.00 Overcast OVC080 57.2 48.2 72% 29.82 0.0
03 16:35 S 14 G 22 10.00 Mostly Cloudy SCT080 BKN095 57.2 48.2 72% 29.82 0.0
03 16:15 S 14 10.00 Mostly Cloudy BKN095 55.4 50 82% 29.82 0.0
03 15:55 SE 15 10.00 Overcast OVC095 53.6 48.2 82% 29.83 0.0
03 15:35 SE 15 G 20 10.00 Mostly Cloudy BKN095 51.8 48.2 88% 29.84 0.0
03 15:15 SE 13 G 17 10.00 Overcast OVC095 50 48.2 94% 46 29.86 0.0
03 14:55 SE 10 G 18 10.00 Mostly Cloudy BKN085 48.2 46.4 94% 44 29.87 0.0
03 14:35 SE 17 G 24 8.00 Light Rain CLR 48.2 48.2 100% 42 29.87 0.0
03 14:15 S 12 6.00 Light Rain Fog/Mist FEW002 FEW042 FEW048 48.2 46.4 94% 44 29.92 0.0
03 13:35 SW 14 9.00 Light Rain FEW002 BKN042 50 46.4 88% 45 29.95 0.0
03 13:15 SW 22 G 32 4.00 Light Rain Haze and Breezy FEW042 FEW070 50 44.6 82% 44 29.96 0.0
03 12:55 SW 22 G 38 10.00 Partly Cloudy and Breezy FEW049 SCT070 55.4 41 59.9 44.6 59% 29.95 0.0
03 12:35 W 22 G 33 10.00 Partly Cloudy and Breezy SCT049 57.2 39.2 51% 29.94 0.0
03 12:15 SW 17 G 35 10.00 Fair CLR 59 41 51% 29.94 0.0
03 11:55 SW 26 G 35 10.00 Fair and Windy CLR 59 39.2 48% 29.94 0.0
03 11:35 SW 18 G 30 10.00 Fair CLR 59 37.4 45% 29.95 0.0
03 11:15 SW 23 G 30 10.00 Fair and Breezy CLR 59 37.4 45% 29.96 0.0
03 10:55 SW 24 G 31 10.00 Fair and Breezy CLR 57.2 37.4 48% 29.96 0.0
03 10:35 SW 23 G 29 10.00 Fair and Breezy CLR 57.2 37.4 48% 29.96 0.0
03 10:15 SW 20 G 25 10.00 Fair CLR 57.2 37.4 48% 29.97 0.0
03 09:55 SW 21 G 32 10.00 Fair and Breezy CLR 55.4 37.4 51% 29.98 0.0
03 09:35 SW 18 G 24 10.00 Fair CLR 55.4 37.4 51% 29.99 0.0
03 09:15 SW 15 G 25 10.00 Fair CLR 53.6 35.6 51% 29.99 0.0
03 08:55 SW 14 G 25 10.00 Fair CLR 53.6 35.6 51% 30 0.0
03 08:35 SW 21 G 26 10.00 Fair and Breezy CLR 51.8 35.6 54% 29.99 0.0
03 08:15 SW 14 G 23 10.00 Fair CLR 51.8 33.8 50% 30 0.0
03 07:35 SW 14 G 20 10.00 Fair CLR 48.2 33.8 58% 43 29.99 0.0
03 07:15 SW 14 G 23 10.00 Fair CLR 46.4 32 57% 41 29.99 0.0
03 06:55 SW 14 G 17 10.00 Fair CLR 44.6 32 44.8 39.4 61% 39 29.99 0.0
03 06:35 SW 12 10.00 Fair CLR 44.6 32 61% 39 29.99 0.0
03 06:15 SW 12 10.00 Fair CLR 42.8 32 66% 37 29.99 0.0
03 05:55 SW 9 10.00 Fair CLR 41 30.2 66% 36 29.99 0.0
03 05:35 SW 7 10.00 Fair CLR 41 30.2 66% 37 29.99 0.0
03 05:15 SW 7 10.00 Fair CLR 41 30.2 66% 37 29.99 0.0
03 04:55 SW 7 10.00 Fair CLR 39.2 30.2 70% 35 29.99 0.0
03 04:35 SW 6 10.00 Fair CLR 39.2 32 75% 36 29.99 0.0
03 04:15 SW 7 10.00 Fair CLR 39.2 32 75% 35 30 0.0
03 03:55 SW 6 10.00 Fair CLR 39.2 32 75% 36 29.99 0.0
03 03:35 SW 7 10.00 Fair CLR 41 32 70% 37 30 0.0
03 03:15 SW 7 10.00 Fair CLR 41 32 70% 37 30 0.0
03 02:55 SW 7 10.00 Fair CLR 41 30.2 66% 37 29.99 0.0
03 02:35 SW 8 10.00 Fair CLR 41 30.2 66% 36 29.99 0.0
03 02:15 SW 7 10.00 Fair CLR 41 32 70% 37 30 0.0
03 01:55 S 8 10.00 Fair CLR 41 32 70% 36 30.01 0.0
03 01:35 S 8 10.00 Fair CLR 41 32 70% 36 30.01 0.0
03 01:15 S 8 10.00 Fair CLR 41 32 70% 36 30.02 0.0
03 00:55 S 7 10.00 Fair CLR 41 32 51.4 39.6 70% 37 30.02 0.0
03 00:35 S 8 10.00 Fair CLR 39.2 32 75% 34 30.02 0.0
03 00:15 S 7 10.00 Fair CLR 39.2 32 75% 35 30.03 0.0
02 23:55 S 8 10.00 Fair CLR 39.2 32 75% 34 30.03 0.0
02 23:15 S 6 10.00 Fair CLR 41 30.2 66% 38 30.03 0.0
02 22:55 S 6 10.00 Fair CLR 41 30.2 66% 38 30.04 0.0
02 22:35 S 6 10.00 Fair CLR 42.8 30.2 61% 40 30.04 0.0
02 22:15 S 5 10.00 Fair CLR 41 32 70% 38 30.04 0.0
02 21:55 S 5 10.00 Fair CLR 41 33.8 76% 38 30.04 0.0
02 21:35 S 5 10.00 Fair CLR 41 33.8 76% 38 30.04 0.0
02 21:15 S 3 10.00 Fair CLR 41 35.6 81% 30.04 0.0
02 20:55 S 3 10.00 Fair CLR 42.8 33.8 71% 30.04 0.0
02 20:35 S 6 10.00 Fair CLR 42.8 33.8 71% 40 30.04 0.0
02 20:15 S 3 10.00 Fair CLR 46.4 32 57% 30.03 0.0
02 19:55 Calm 10.00 Fair CLR 48.2 28.4 46% 30.03 0.0
02 19:35 Vrbl 1 10.00 Fair CLR 50 28.4 43% 30.04 0.0
02 19:15 N 3 10.00 Fair CLR 50 28.4 43% 30.03 0.0
02 18:35 NW 7 10.00 Fair CLR 51.8 28.4 41% 30.03 0.0
02 18:15 NW 7 10.00 Fair CLR 51.8 28.4 41% 30.04 0.0
02 17:55 NW 9 G 21 10.00 Fair CLR 53.6 26.6 35% 30.04 0.0
02 17:35 NW 8 10.00 Fair CLR 53.6 26.6 35% 30.04 0.0
02 17:15 NW 14 10.00 Fair CLR 53.6 28.4 38% 30.05 0.0
02 16:55 N 10 10.00 A Few Clouds FEW070 51.8 26.6 38% 30.05 0.0
02 16:35 N 12 G 18 10.00 A Few Clouds FEW070 53.6 26.6 35% 30.05 0.0
02 16:15 N 12 G 16 10.00 A Few Clouds FEW070 53.6 26.6 35% 30.05 0.0
02 15:35 NW 12 10.00 Fair CLR 53.6 24.8 33% 30.06 0.0
02 15:15 N 10 G 24 10.00 Fair CLR 51.8 24.8 35% 30.07 0.0
02 14:55 N 9 G 32 10.00 Fair CLR 53.6 26.6 35% 30.08 0.0
02 14:35 N 13 G 20 10.00 Fair CLR 51.8 26.6 38% 30.08 0.0
02 14:15 N 14 G 20 10.00 A Few Clouds FEW065 51.8 28.4 41% 30.09 0.0
02 13:35 N 15 G 23 10.00 A Few Clouds FEW065 51.8 28.4 41% 30.1 0.0
02 13:15 NW 12 G 17 10.00 A Few Clouds FEW065 50 24.8 37% 46 30.1 0.0
02 12:55 NW 12 G 17 10.00 Fair CLR 50 26.6 51.1 31.1 40% 46 30.11 0.0
02 12:35 N 9 G 21 10.00 A Few Clouds FEW060 50 26.6 40% 47 30.11 0.0
02 12:15 N 8 G 17 10.00 Partly Cloudy SCT060 50 26.6 40% 47 30.11 0.0
02 11:55 N 13 G 20 10.00 A Few Clouds FEW060 50 28.4 43% 46 30.12 0.0
02 11:35 N 7 G 17 10.00 A Few Clouds FEW055 48.2 24.8 40% 46 30.12 0.0
02 11:15 NW 9 10.00 Mostly Cloudy BKN055 BKN065 46.4 24.8 43% 42 30.12 0.0
02 10:55 Vrbl 6 10.00 Partly Cloudy SCT055 SCT065 46.4 26.6 46% 44 30.12 0.0
02 10:35 N 10 10.00 Fair CLR 46.4 24.8 43% 42 30.13 0.0
02 10:15 NW 10 10.00 A Few Clouds FEW046 FEW055 44.6 26.6 49% 40 30.13 0.0
02 09:55 NW 8 10.00 A Few Clouds FEW048 46.4 28.4 50% 43 30.12 0.0
02 09:35 N 9 10.00 Fair CLR 44.6 28.4 53% 40 30.12 0.0
02 09:15 NW 7 10.00 Fair CLR 44.6 30.2 57% 41 30.12 0.0
02 08:55 N 5 10.00 Fair CLR 42.8 28.4 57% 41 30.12 0.0
02 08:35 NE 5 10.00 Fair CLR 42.8 30.2 61% 41 30.12 0.0
02 07:55 N 8 10.00 Fair CLR 39.2 33.8 81% 34 30.11 0.0
02 07:35 N 6 10.00 Fair CLR 37.4 33.8 87% 33 30.11 0.0
02 07:15 N 1 10.00 Fair CLR 33.8 33.8 100% 30.11 0.0
02 06:55 N 2 10.00 Fair CLR 32 32 34.2 27.9 100% 30.11 0.0
02 06:35 N 1 10.00 Fair CLR 30.2 30.2 100% 30.1 0.0
02 06:15 Calm 10.00 Fair CLR 28.4 28.4 100% 30.1 0.0
02 05:55 N 1 10.00 Fair CLR 28.4 28.4 100% 30.1 0.0
02 05:35 N 1 10.00 Fair CLR 30.2 30.2 100% 30.09 0.0
02 05:15 N 2 10.00 Fair CLR 28.4 28.4 100% 30.09 0.0
02 04:55 N 3 10.00 Fair CLR 28.4 28.4 100% 30.09 0.0
02 04:35 N 2 10.00 Fair CLR 30.2 30.2 100% 30.09 0.0
02 04:15 NE 2 10.00 Fair CLR 30.2 30.2 100% 30.09 0.0
02 03:55 NE 1 10.00 Fair CLR 32 32 100% 30.09 0.0
02 03:35 N 1 10.00 Fair CLR 32 32 100% 30.09 0.0
02 03:15 NW 2 10.00 Fair CLR 32 32 100% 30.09 0.0
02 02:55 NW 3 10.00 Fair CLR 32 32 100% 30.09 0.0
02 02:35 N 2 10.00 Fair CLR 32 32 100% 30.09 0.0
02 02:15 N 2 10.00 Fair CLR 32 32 100% 30.09 0.0
02 01:55 NW 2 10.00 Fair CLR 33.8 32 93% 30.09 0.0
02 01:35 Calm 10.00 Fair CLR 33.8 32 93% 30.09 0.0
02 01:15 NW 2 10.00 Fair CLR 33.8 33.8 100% 30.09 0.0
02 00:55 N 3 10.00 Fair CLR 33.8 33.8 44.8 33.1 100% 30.1 0.0
02 00:35 N 3 10.00 Fair CLR 33.8 33.8 100% 30.11 0.0
02 00:15 N 5 10.00 Fair CLR 35.6 33.8 93% 32 30.11 0.0
01 23:55 N 5 10.00 A Few Clouds FEW065 33.8 33.8 100% 30 30.11 0.0
01 23:35 NW 5 10.00 A Few Clouds FEW060 35.6 32 87% 32 30.11 0.0
01 23:15 NW 7 10.00 Overcast OVC060 37.4 33.8 87% 33 30.11 0.0
01 22:55 NW 5 10.00 Overcast OVC060 37.4 33.8 87% 34 30.1 0.0
01 22:35 NW 3 10.00 Overcast OVC060 39.2 32 75% 30.1 0.0
01 22:15 NW 3 10.00 Overcast OVC050 39.2 32 75% 30.09 0.0
01 21:55 NW 3 10.00 Overcast BKN050 OVC070 37.4 33.8 87% 30.09 0.0
01 21:35 NW 3 10.00 Overcast SCT050 OVC060 39.2 32 75% 30.09 0.0
01 21:15 N 8 10.00 Mostly Cloudy BKN050 BKN070 37.4 32 81% 32 30.08 0.0
01 20:55 N 7 10.00 Mostly Cloudy BKN050 39.2 32 75% 35 30.07 0.0
01 20:35 N 9 10.00 Partly Cloudy FEW050 SCT065 39.2 32 75% 34 30.07 0.0
01 20:15 N 10 10.00 Mostly Cloudy BKN070 BKN075 41 30.2 66% 35 30.06 0.0
01 19:55 N 13 10.00 Overcast OVC070 42.8 30.2 61% 37 30.05 0.0
01 19:35 N 12 10.00 Mostly Cloudy BKN070 42.8 32 66% 37 30.05 0.0
01 19:15 N 14 10.00 Overcast SCT070 OVC090 44.6 32 61% 39 30.05 0.0
01 18:55 N 13 10.00 Overcast OVC090 44.6 30.2 51.4 44.8 57% 39 30.04 0.0
01 18:35 N 12 10.00 Overcast OVC090 46.4 32 57% 42 30.04 0.0
01 18:15 N 13 10.00 Overcast FEW065 SCT075 OVC090 46.4 32 57% 41 30.04 0.0
01 17:55 N 14 10.00 Overcast BKN075 OVC085 46.4 32 57% 41 30.04 0.0
01 17:35 N 9 10.00 Overcast OVC075 48.2 32 54% 45 30.04 0.0
01 17:15 N 10 10.00 Mostly Cloudy BKN075 48.2 32 54% 44 30.03 0.0
01 16:55 N 16 G 20 10.00 Overcast OVC075 48.2 32 54% 43 30.03 0.0
01 16:35 N 10 G 18 10.00 Overcast FEW049 BKN085 OVC090 48.2 32 54% 44 30.03 0.0
01 16:15 NW 14 G 20 10.00 Overcast OVC085 48.2 30.2 50% 43 30.03 0.0
01 15:55 NW 13 G 21 10.00 Overcast OVC085 48.2 30.2 50% 43 30.03 0.0
01 15:35 N 10 G 18 10.00 Mostly Cloudy FEW050 BKN075 BKN085 48.2 30.2 50% 44 30.03 0.0
01 15:15 N 13 G 20 10.00 Mostly Cloudy FEW050 SCT070 BKN080 50 32 50% 46 30.03 0.0
01 14:55 NW 14 G 22 10.00 Mostly Cloudy BKN080 50 33.8 54% 45 30.03 0.0
01 14:35 NW 17 G 23 10.00 Mostly Cloudy FEW046 FEW055 BKN080 50 32 50% 45 30.03 0.0
01 14:15 NW 18 G 24 10.00 Partly Cloudy FEW046 FEW070 SCT080 50 33.8 54% 44 30.03 0.0
01 13:55 N 18 G 25 10.00 Mostly Cloudy SCT041 BKN070 50 33.8 54% 44 30.03 0.0
01 13:35 NW 16 G 23 10.00 Overcast FEW039 FEW045 OVC080 50 33.8 54% 45 30.02 0.0
01 13:15 NW 15 10.00 Overcast FEW037 OVC080 50 35.6 58% 45 30.02 0.0
01 12:55 NW 14 G 20 10.00 Partly Cloudy SCT037 SCT048 SCT080 50 35.6 49.8 38.7 58% 45 30.02 0.0
01 12:35 NW 12 G 18 10.00 Partly Cloudy SCT037 SCT047 50 37.4 62% 46 30.01 0.0
01 12:15 NW 16 G 22 10.00 Partly Cloudy SCT035 SCT049 48.2 37.4 66% 43 30.01 0.0
01 11:55 NW 15 G 20 10.00 Mostly Cloudy SCT033 BKN038 BKN049 50 37.4 62% 45 30.01 0.0
01 11:35 N 14 G 21 10.00 Mostly Cloudy BKN033 BKN043 BKN070 48.2 37.4 66% 43 30.01 0.0
01 11:15 NW 13 G 20 10.00 Mostly Cloudy BKN033 48.2 37.4 66% 43 30.01 0.0
01 10:55 NW 13 G 18 10.00 Partly Cloudy SCT033 48.2 37.4 66% 43 30.01 0.0
01 10:35 N 9 10.00 A Few Clouds FEW026 FEW031 48.2 37.4 66% 45 30 0.0
01 10:15 NW 12 10.00 Mostly Cloudy BKN026 44.6 37.4 76% 39 30.01 0.0
01 09:55 N 12 10.00 Mostly Cloudy BKN024 46.4 39.2 76% 42 30 0.0
01 09:35 N 7 10.00 Mostly Cloudy FEW016 BKN026 42.8 37.4 81% 39 30 0.0
01 09:15 N 10 10.00 Overcast SCT014 OVC024 42.8 41 93% 38 30 0.0
01 08:55 Vrbl 7 10.00 Overcast BKN014 OVC022 42.8 41 93% 39 29.99 0.0
01 08:35 N 6 10.00 Overcast BKN012 BKN023 OVC095 42.8 41 93% 40 29.99 0.0
01 08:15 N 6 10.00 Overcast BKN012 BKN024 OVC080 41 39.2 93% 38 29.99 0.0
01 07:55 N 8 10.00 Overcast BKN022 BKN080 OVC110 41 39.2 93% 36 29.98 0.0
01 07:35 N 7 10.00 Overcast SCT011 BKN080 OVC110 41 39.2 93% 37 29.99 0.0
01 07:15 N 10 10.00 Overcast SCT009 BKN014 OVC075 39.2 39.2 100% 33 29.98 0.0
Date Time (cdt) Wind (mph) Vis. (mi.) Weather Sky Cond. Air Dwpt Max. Min. Relative Humidity Wind Chill (°F) Heat Index (°F) altimeter (in) sea level (mb) 1 hr 3 hr 6 hr
6 hour
Temperature (ºF) Pressure Precipitation (in)